createdAt,value
2019-05-30T00:00:31.817Z,72.44
2019-05-30T00:01:31.874Z,72.85
2019-05-30T00:02:31.813Z,73.78
2019-05-30T00:03:31.791Z,73.57
2019-05-30T00:04:31.780Z,73.68
2019-05-30T00:05:31.804Z,73.78
2019-05-30T00:06:31.753Z,73.57
2019-05-30T00:07:31.763Z,73.47
2019-05-30T00:08:31.754Z,73.36
2019-05-30T00:09:31.731Z,73.36
2019-05-30T00:10:31.712Z,72.44
2019-05-30T00:11:31.690Z,73.16
2019-05-30T00:12:31.757Z,73.27
2019-05-30T00:13:31.696Z,73.16
2019-05-30T00:14:31.724Z,72.75
2019-05-30T00:15:31.676Z,73.36
2019-05-30T00:16:31.661Z,73.06
2019-05-30T00:17:31.626Z,73.47
2019-05-30T00:18:31.667Z,73.16
2019-05-30T00:19:33.936Z,73.47
2019-05-30T00:20:31.626Z,73.27
2019-05-30T00:21:31.590Z,73.16
2019-05-30T00:22:31.576Z,73.50
2019-05-30T00:23:31.629Z,73.71
2019-05-30T00:24:31.553Z,74.12
2019-05-30T00:25:31.565Z,74.43
2019-05-30T00:26:31.566Z,74.43
2019-05-30T00:27:31.521Z,74.46
2019-05-30T00:28:31.557Z,75.25
2019-05-30T00:29:31.544Z,75.45
2019-05-30T00:30:31.513Z,75.76
2019-05-30T00:31:31.475Z,74.94
2019-05-30T00:32:31.482Z,75.15
2019-05-30T00:33:31.460Z,74.98
2019-05-30T00:34:31.521Z,75.80
2019-05-30T00:35:31.437Z,75.59
2019-05-30T00:36:31.446Z,75.80
2019-05-30T00:37:31.434Z,75.76
2019-05-30T00:38:31.439Z,75.56
2019-05-30T00:39:31.452Z,75.38
2019-05-30T00:40:31.926Z,75.49
2019-05-30T00:41:31.373Z,75.45
2019-05-30T00:42:31.380Z,75.66
2019-05-30T00:43:31.372Z,75.70
2019-05-30T00:44:31.337Z,75.56
2019-05-30T00:45:31.393Z,75.80
2019-05-30T00:46:31.335Z,75.80
2019-05-30T00:47:31.307Z,75.59
2019-05-30T00:48:31.320Z,75.80
2019-05-30T00:49:31.294Z,76.04
2019-05-30T00:50:31.276Z,76.25
2019-05-30T00:51:31.289Z,76.90
2019-05-30T00:52:31.907Z,76.76
2019-05-30T00:53:31.246Z,77.37
2019-05-30T00:54:31.241Z,77.37
2019-05-30T00:55:31.213Z,77.37
2019-05-30T00:56:31.269Z,77.41
2019-05-30T00:57:31.197Z,77.51
2019-05-30T00:58:31.209Z,77.68
2019-05-30T00:59:31.197Z,76.76
2019-05-30T01:00:42.921Z,76.65
2019-05-30T01:01:31.193Z,76.72
2019-05-30T01:02:31.133Z,76.10
2019-05-30T01:03:31.146Z,76.42
2019-05-30T01:04:31.113Z,76.10
2019-05-30T01:05:31.124Z,76.45
2019-05-30T01:06:31.116Z,76.42
2019-05-30T01:07:31.123Z,76.76
2019-05-30T01:08:31.068Z,77.20
2019-05-30T01:09:31.075Z,77.20
2019-05-30T01:10:31.046Z,77.51
2019-05-30T01:11:31.055Z,77.72
2019-05-30T01:12:31.071Z,77.82
2019-05-30T01:13:31.009Z,77.78
2019-05-30T01:14:31.030Z,77.92
2019-05-30T01:15:31.011Z,78.44
2019-05-30T01:16:31.022Z,78.23
2019-05-30T01:17:30.996Z,78.33
2019-05-30T01:18:31.041Z,78.54
2019-05-30T01:19:30.944Z,78.44
2019-05-30T01:20:30.941Z,78.64
2019-05-30T01:21:30.924Z,78.40
2019-05-30T01:22:30.921Z,78.81
2019-05-30T01:23:30.977Z,78.40
2019-05-30T01:24:31.863Z,78.50
2019-05-30T01:25:30.880Z,78.75
2019-05-30T01:26:30.888Z,78.50
2019-05-30T01:27:30.866Z,78.44
2019-05-30T01:28:30.875Z,78.75
2019-05-30T01:29:30.879Z,78.44
2019-05-30T01:30:30.821Z,78.61
2019-05-30T01:31:30.817Z,78.50
2019-05-30T01:32:30.828Z,78.40
2019-05-30T01:33:30.800Z,78.85
2019-05-30T01:34:30.844Z,79.05
2019-05-30T01:35:30.807Z,78.50
2019-05-30T01:36:30.756Z,77.99
2019-05-30T01:37:30.750Z,77.99
2019-05-30T01:38:30.762Z,78.20
2019-05-30T01:39:30.751Z,78.03
2019-05-30T01:40:30.758Z,77.82
2019-05-30T01:41:30.757Z,77.92
2019-05-30T01:42:30.710Z,77.72
2019-05-30T01:43:30.690Z,78.03
2019-05-30T01:44:30.694Z,78.64
2019-05-30T01:45:30.709Z,78.64
2019-05-30T01:46:30.680Z,79.05
2019-05-30T01:47:30.633Z,78.54
2019-05-30T01:48:30.627Z,78.64
2019-05-30T01:49:30.627Z,78.64
2019-05-30T01:50:30.607Z,78.64
2019-05-30T01:51:30.614Z,78.64
2019-05-30T01:52:30.618Z,78.33
2019-05-30T01:53:30.582Z,78.61
2019-05-30T01:54:30.561Z,78.44
2019-05-30T01:55:30.572Z,78.09
2019-05-30T01:56:30.587Z,78.30
2019-05-30T01:57:30.550Z,77.51
2019-05-30T01:58:30.554Z,78.03
2019-05-30T01:59:30.504Z,77.99
2019-05-30T02:00:30.496Z,78.33
2019-05-30T02:01:30.583Z,77.68
2019-05-30T02:02:30.488Z,77.48
2019-05-30T02:03:30.487Z,77.58
2019-05-30T02:04:30.490Z,77.78
2019-05-30T02:05:30.442Z,77.62
2019-05-30T02:06:30.508Z,78.40
2019-05-30T02:07:30.447Z,78.33
2019-05-30T02:08:30.424Z,78.75
2019-05-30T02:09:30.414Z,78.54
2019-05-30T02:10:30.381Z,78.75
2019-05-30T02:11:30.369Z,78.64
2019-05-30T02:12:30.396Z,78.54
2019-05-30T02:13:30.382Z,78.54
2019-05-30T02:14:30.358Z,78.96
2019-05-30T02:15:30.359Z,78.75
2019-05-30T02:16:30.317Z,78.64
2019-05-30T02:17:30.380Z,78.44
2019-05-30T02:18:30.318Z,78.03
2019-05-30T02:19:30.313Z,77.82
2019-05-30T02:20:30.294Z,78.58
2019-05-30T02:21:30.310Z,78.68
2019-05-30T02:22:30.304Z,78.47
2019-05-30T02:23:30.247Z,79.81
2019-05-30T02:24:30.241Z,79.95
2019-05-30T02:25:30.228Z,80.47
2019-05-30T02:26:30.233Z,80.88
2019-05-30T02:27:30.245Z,81.09
2019-05-30T02:28:30.246Z,81.70
2019-05-30T02:29:30.187Z,81.19
2019-05-30T02:30:30.196Z,80.57
2019-05-30T02:31:39.009Z,80.57
2019-05-30T02:32:31.187Z,80.94
2019-05-30T02:33:30.203Z,81.15
2019-05-30T02:34:30.120Z,80.53
2019-05-30T02:35:30.121Z,79.81
2019-05-30T02:36:30.145Z,79.91
2019-05-30T02:37:30.109Z,80.02
2019-05-30T02:38:30.149Z,80.02
2019-05-30T02:39:30.060Z,79.61
2019-05-30T02:40:30.051Z,80.12
2019-05-30T02:41:30.063Z,79.30
2019-05-30T02:42:30.054Z,79.61
2019-05-30T02:43:30.044Z,79.81
2019-05-30T02:44:30.049Z,79.91
2019-05-30T02:45:30.003Z,79.50
2019-05-30T02:46:30.015Z,79.81
2019-05-30T02:47:30.000Z,79.54
2019-05-30T02:48:29.981Z,79.54
2019-05-30T02:49:30.008Z,79.75
2019-05-30T02:50:29.976Z,79.75
2019-05-30T02:51:29.931Z,80.05
2019-05-30T02:52:29.923Z,80.05
2019-05-30T02:53:29.935Z,80.12
2019-05-30T02:54:29.908Z,80.02
2019-05-30T02:55:29.917Z,79.71
2019-05-30T02:56:29.915Z,79.81
2019-05-30T02:57:29.861Z,79.91
2019-05-30T02:58:29.880Z,79.81
2019-05-30T02:59:29.856Z,80.43
2019-05-30T03:00:29.894Z,80.74
2019-05-30T03:01:29.859Z,80.70
2019-05-30T03:02:29.810Z,79.77
2019-05-30T03:03:29.800Z,79.81
2019-05-30T03:04:29.806Z,79.57
2019-05-30T03:05:29.812Z,79.47
2019-05-30T03:06:29.812Z,79.57
2019-05-30T03:07:29.796Z,79.26
2019-05-30T03:08:29.746Z,78.75
2019-05-30T03:09:29.733Z,78.33
2019-05-30T03:10:29.752Z,78.44
2019-05-30T03:11:29.761Z,78.75
2019-05-30T03:12:29.721Z,79.05
2019-05-30T03:13:29.729Z,79.05
2019-05-30T03:14:29.681Z,79.33
2019-05-30T03:15:29.680Z,79.36
2019-05-30T03:16:29.756Z,78.96
2019-05-30T03:17:29.660Z,79.16
2019-05-30T03:18:29.659Z,79.16
2019-05-30T03:19:29.643Z,79.26
2019-05-30T03:20:29.615Z,79.16
2019-05-30T03:21:29.649Z,79.67
2019-05-30T03:22:29.626Z,79.67
2019-05-30T03:23:29.659Z,79.36
2019-05-30T03:24:29.593Z,79.67
2019-05-30T03:25:29.575Z,79.57
2019-05-30T03:26:29.544Z,79.57
2019-05-30T03:27:29.622Z,79.47
2019-05-30T03:28:29.536Z,80.08
2019-05-30T03:29:29.534Z,79.67
2019-05-30T03:30:30.011Z,79.77
2019-05-30T03:31:30.325Z,79.53
2019-05-30T03:33:01.853Z,79.67
2019-05-30T03:33:38.787Z,79.63
2019-05-30T03:34:29.722Z,79.57
2019-05-30T03:35:35.465Z,79.67
2019-05-30T03:36:31.882Z,79.98
2019-05-30T03:37:30.731Z,79.67
2019-05-30T03:38:29.494Z,80.70
2019-05-30T03:39:29.403Z,80.91
2019-05-30T03:40:30.344Z,81.01
2019-05-30T03:41:29.416Z,80.70
2019-05-30T03:42:29.414Z,80.56
2019-05-30T03:43:29.429Z,79.84
2019-05-30T03:44:29.361Z,79.63
2019-05-30T03:45:29.344Z,79.84
2019-05-30T03:46:29.346Z,79.74
2019-05-30T03:47:29.345Z,79.77
2019-05-30T03:48:29.329Z,79.88
2019-05-30T03:49:29.340Z,80.15
2019-05-30T03:50:29.296Z,79.63
2019-05-30T03:51:29.283Z,79.63
2019-05-30T03:52:29.277Z,79.84
2019-05-30T03:53:29.252Z,79.84
2019-05-30T03:54:29.295Z,79.53
2019-05-30T03:55:29.239Z,79.63
2019-05-30T03:56:29.271Z,79.74
2019-05-30T03:57:29.206Z,79.60
2019-05-30T03:58:29.221Z,79.53
2019-05-30T03:59:29.189Z,79.91
2019-05-30T04:00:29.227Z,80.01
2019-05-30T04:01:29.195Z,79.80
2019-05-30T04:02:29.148Z,80.01
2019-05-30T04:03:29.146Z,79.70
2019-05-30T04:04:29.145Z,79.80
2019-05-30T04:05:29.168Z,80.01
2019-05-30T04:06:29.128Z,79.80
2019-05-30T04:07:29.131Z,79.66
2019-05-30T04:08:29.085Z,79.77
2019-05-30T04:09:29.095Z,79.87
2019-05-30T04:10:29.107Z,79.77
2019-05-30T04:11:29.062Z,79.66
2019-05-30T04:12:29.068Z,79.36
2019-05-30T04:13:29.060Z,79.56
2019-05-30T04:14:29.027Z,79.77
2019-05-30T04:15:29.027Z,79.77
2019-05-30T04:16:29.036Z,79.66
2019-05-30T04:17:29.000Z,79.46
2019-05-30T04:18:29.007Z,79.36
2019-05-30T04:19:28.983Z,79.56
2019-05-30T04:20:28.965Z,79.66
2019-05-30T04:21:29.023Z,79.36
2019-05-30T04:22:28.933Z,78.91
2019-05-30T04:23:28.933Z,78.70
2019-05-30T04:24:28.943Z,77.98
2019-05-30T04:25:28.901Z,77.98
2019-05-30T04:26:28.912Z,77.84
2019-05-30T04:27:28.911Z,77.23
2019-05-30T04:28:28.867Z,77.84
2019-05-30T04:29:28.865Z,76.92
2019-05-30T04:30:28.879Z,76.72
2019-05-30T04:31:28.835Z,76.62
2019-05-30T04:32:28.895Z,76.48
2019-05-30T04:33:33.096Z,75.76
2019-05-30T04:34:28.806Z,75.56
2019-05-30T04:35:28.802Z,75.62
2019-05-30T04:36:28.812Z,75.82
2019-05-30T04:37:28.774Z,74.70
2019-05-30T04:38:29.288Z,74.26
2019-05-30T04:39:28.745Z,74.05
2019-05-30T04:40:28.744Z,73.64
2019-05-30T04:41:28.744Z,72.89
2019-05-30T04:42:28.707Z,72.78
2019-05-30T04:43:28.766Z,72.58
2019-05-30T04:44:28.717Z,72.99
2019-05-30T04:45:28.719Z,72.38
2019-05-30T04:46:28.673Z,72.55
2019-05-30T04:47:28.685Z,73.06
2019-05-30T04:48:28.646Z,72.65
2019-05-30T04:49:28.691Z,70.98
2019-05-30T04:50:28.663Z,71.39
2019-05-30T04:51:28.610Z,70.78
2019-05-30T04:52:28.611Z,70.57
2019-05-30T04:53:28.629Z,70.64
2019-05-30T04:54:28.631Z,70.43
2019-05-30T04:55:28.583Z,69.72
2019-05-30T04:56:28.589Z,69.48
2019-05-30T04:57:28.546Z,69.28
2019-05-30T04:58:28.552Z,69.07
2019-05-30T04:59:28.562Z,68.87
2019-05-30T05:00:28.576Z,68.66
2019-05-30T05:01:28.528Z,68.87
2019-05-30T05:02:28.492Z,69.04
2019-05-30T05:03:44.558Z,68.94
2019-05-30T05:04:28.489Z,68.43
2019-05-30T05:05:28.488Z,68.43
2019-05-30T05:06:28.461Z,68.33
2019-05-30T05:07:28.459Z,67.99
2019-05-30T05:08:28.513Z,67.68
2019-05-30T05:09:28.421Z,67.68
2019-05-30T05:10:28.486Z,66.56
2019-05-30T05:11:28.397Z,66.83
2019-05-30T05:12:28.393Z,66.66
2019-05-30T05:13:28.392Z,66.22
2019-05-30T05:14:28.357Z,66.94
2019-05-30T05:15:28.356Z,67.04
2019-05-30T05:16:35.566Z,66.74
2019-05-30T05:17:28.380Z,66.74
2019-05-30T05:18:28.336Z,65.89
2019-05-30T05:19:28.324Z,65.48
2019-05-30T05:20:28.289Z,65.17
2019-05-30T05:21:28.292Z,65.37
2019-05-30T05:22:28.315Z,65.68
2019-05-30T05:23:28.263Z,65.37
2019-05-30T05:24:28.271Z,65.37
2019-05-30T05:25:28.281Z,65.55
2019-05-30T05:26:28.222Z,65.14
2019-05-30T05:27:28.287Z,65.14
2019-05-30T05:28:28.236Z,64.63
2019-05-30T05:29:28.202Z,64.53
2019-05-30T05:30:28.209Z,64.90
2019-05-30T05:31:28.197Z,65.62
2019-05-30T05:32:28.159Z,64.90
2019-05-30T05:33:28.213Z,64.60
2019-05-30T05:34:28.141Z,64.98
2019-05-30T05:35:28.170Z,64.87
2019-05-30T05:36:28.133Z,65.08
2019-05-30T05:37:28.142Z,64.26
2019-05-30T05:38:28.528Z,64.67
2019-05-30T05:39:28.395Z,64.47
2019-05-30T05:40:28.540Z,63.83
2019-05-30T05:41:28.641Z,62.61
2019-05-30T05:42:29.912Z,63.73
2019-05-30T05:43:28.698Z,63.01
2019-05-30T05:44:28.737Z,63.09
2019-05-30T05:45:28.781Z,62.37
2019-05-30T05:46:28.729Z,62.48
2019-05-30T05:47:28.863Z,62.78
2019-05-30T05:48:28.834Z,62.88
2019-05-30T05:49:28.876Z,62.68
2019-05-30T05:50:28.782Z,62.24
2019-05-30T05:51:29.057Z,61.63
2019-05-30T05:52:28.889Z,61.74
2019-05-30T05:53:29.039Z,61.63
2019-05-30T05:54:29.207Z,61.71
2019-05-30T05:55:28.943Z,60.28
2019-05-30T05:56:29.059Z,60.79
2019-05-30T05:57:29.105Z,59.98
2019-05-30T05:58:29.245Z,59.27
2019-05-30T05:59:27.875Z,59.64
2019-05-30T06:00:27.899Z,59.14
2019-05-30T06:01:27.849Z,58.63
2019-05-30T06:02:27.842Z,58.33
2019-05-30T06:03:28.319Z,58.12
2019-05-30T06:04:27.848Z,58.20
2019-05-30T06:05:28.465Z,58.20
2019-05-30T06:06:27.801Z,58.50
2019-05-30T06:07:28.617Z,58.60
2019-05-30T06:08:27.806Z,58.29
2019-05-30T06:09:28.767Z,57.66
2019-05-30T06:10:28.037Z,56.85
2019-05-30T06:11:28.651Z,56.65
2019-05-30T06:12:27.949Z,56.85
2019-05-30T06:13:28.981Z,57.76
2019-05-30T06:14:28.123Z,57.86
2019-05-30T06:15:27.717Z,57.76
2019-05-30T06:16:28.410Z,56.31
2019-05-30T06:17:27.660Z,56.82
2019-05-30T06:18:28.434Z,56.31
2019-05-30T06:19:27.686Z,56.62
2019-05-30T06:20:27.655Z,54.92
2019-05-30T06:21:27.651Z,54.99
2019-05-30T06:22:27.663Z,55.10
2019-05-30T06:23:27.822Z,55.12
2019-05-30T06:24:27.981Z,54.99
2019-05-30T06:25:32.092Z,55.30
2019-05-30T06:26:28.036Z,55.30
2019-05-30T06:27:28.094Z,54.90
2019-05-30T06:28:28.221Z,54.69
2019-05-30T06:29:28.377Z,54.49
2019-05-30T06:30:28.788Z,54.86
2019-05-30T06:31:28.656Z,55.88
2019-05-30T06:32:28.701Z,54.97
2019-05-30T06:33:27.492Z,54.66
2019-05-30T06:34:36.683Z,55.07
2019-05-30T06:35:29.404Z,55.37
2019-05-30T06:36:27.463Z,55.15
2019-05-30T06:37:27.462Z,55.15
2019-05-30T06:38:27.470Z,54.13
2019-05-30T06:39:27.649Z,53.93
2019-05-30T06:40:30.409Z,53.02
2019-05-30T06:41:27.729Z,52.81
2019-05-30T06:42:28.234Z,53.42
2019-05-30T06:43:28.241Z,55.02
2019-05-30T06:44:28.122Z,54.11
2019-05-30T06:45:28.416Z,53.09
2019-05-30T06:46:28.389Z,52.59
2019-05-30T06:47:28.389Z,52.99
2019-05-30T06:48:28.699Z,52.48
2019-05-30T06:49:28.914Z,52.59
2019-05-30T06:50:27.336Z,51.88
2019-05-30T06:51:27.291Z,52.48
2019-05-30T06:52:27.289Z,52.89
2019-05-30T06:53:27.372Z,52.69
2019-05-30T06:54:27.816Z,52.59
2019-05-30T06:55:27.383Z,52.69
2019-05-30T06:56:27.518Z,52.79
2019-05-30T06:57:27.335Z,51.75
2019-05-30T06:58:41.500Z,51.14
2019-05-30T06:59:27.686Z,51.65
2019-05-30T07:00:28.100Z,50.94
2019-05-30T07:01:27.946Z,51.04
2019-05-30T07:02:28.346Z,50.51
2019-05-30T07:03:28.366Z,50.11
2019-05-30T07:04:28.444Z,50.51
2019-05-30T07:05:29.603Z,50.61
2019-05-30T07:06:28.173Z,51.32
2019-05-30T07:07:27.382Z,50.92
2019-05-30T07:08:27.119Z,50.21
2019-05-30T07:09:27.097Z,50.01
2019-05-30T07:10:27.095Z,49.88
2019-05-30T07:11:27.114Z,49.07
2019-05-30T07:12:27.535Z,48.36
2019-05-30T07:13:27.353Z,48.46
2019-05-30T07:14:27.302Z,49.27
2019-05-30T07:15:27.269Z,49.58
2019-05-30T07:16:27.388Z,49.35
2019-05-30T07:17:27.434Z,49.17
2019-05-30T07:18:27.554Z,49.58
2019-05-30T07:19:27.425Z,49.07
2019-05-30T07:20:27.491Z,49.25
2019-05-30T07:21:27.663Z,49.45
2019-05-30T07:22:27.758Z,49.15
2019-05-30T07:23:27.857Z,49.15
2019-05-30T07:24:27.749Z,48.52
2019-05-30T07:25:27.861Z,48.32
2019-05-30T07:26:27.700Z,49.33
2019-05-30T07:27:27.814Z,49.43
2019-05-30T07:28:27.896Z,49.22
2019-05-30T07:29:27.994Z,50.14
2019-05-30T07:30:27.939Z,49.73
2019-05-30T07:31:27.972Z,49.53
2019-05-30T07:32:27.878Z,49.01
2019-05-30T07:33:27.822Z,48.80
2019-05-30T07:34:28.037Z,49.41
2019-05-30T07:35:27.891Z,49.61
2019-05-30T07:36:26.810Z,49.71
2019-05-30T07:37:26.819Z,49.91
2019-05-30T07:38:26.765Z,50.12
2019-05-30T07:39:29.741Z,49.21
2019-05-30T07:40:26.794Z,49.51
2019-05-30T07:41:26.983Z,50.32
2019-05-30T07:42:26.759Z,48.88
2019-05-30T07:43:28.292Z,49.28
2019-05-30T07:44:26.703Z,50.29
2019-05-30T07:45:26.810Z,49.28
2019-05-30T07:46:26.828Z,48.98
2019-05-30T07:47:28.005Z,49.28
2019-05-30T07:48:26.697Z,50.37
2019-05-30T07:49:26.665Z,49.16
2019-05-30T07:50:26.644Z,49.16
2019-05-30T07:51:26.664Z,49.16
2019-05-30T07:52:26.638Z,49.36
2019-05-30T07:53:26.721Z,49.33
2019-05-30T07:54:26.872Z,49.05
2019-05-30T07:55:26.939Z,49.44
2019-05-30T07:56:26.947Z,49.94
2019-05-30T07:57:26.596Z,49.24
2019-05-30T07:58:27.030Z,49.04
2019-05-30T07:59:26.571Z,49.44
2019-05-30T08:00:27.443Z,49.24
2019-05-30T08:01:26.515Z,49.31
2019-05-30T08:02:27.487Z,48.91
2019-05-30T08:03:26.534Z,49.01
2019-05-30T08:04:27.424Z,49.92
2019-05-30T08:05:26.746Z,49.21
2019-05-30T08:06:27.434Z,48.21
2019-05-30T08:07:26.581Z,47.90
2019-05-30T08:08:28.037Z,48.00
2019-05-30T08:09:26.810Z,47.98
2019-05-30T08:10:27.675Z,48.69
2019-05-30T08:11:26.784Z,48.99
2019-05-30T08:12:26.389Z,47.88
2019-05-30T08:13:26.987Z,48.08
2019-05-30T08:14:26.998Z,47.86
2019-05-30T08:15:27.300Z,47.35
2019-05-30T08:16:27.087Z,47.25
2019-05-30T08:17:27.316Z,47.66
2019-05-30T08:18:27.455Z,47.25
2019-05-30T08:19:27.661Z,47.35
2019-05-30T08:20:27.532Z,47.03
2019-05-30T08:21:26.339Z,47.03
2019-05-30T08:22:26.310Z,47.13
2019-05-30T08:23:26.298Z,46.93
2019-05-30T08:24:26.266Z,47.23
2019-05-30T08:25:26.335Z,46.83
2019-05-30T08:26:26.272Z,46.20
2019-05-30T08:27:26.250Z,45.82
2019-05-30T08:28:26.246Z,46.12
2019-05-30T08:29:26.205Z,46.22
2019-05-30T08:30:26.193Z,46.10
2019-05-30T08:31:26.265Z,46.33
2019-05-30T08:32:26.183Z,47.20
2019-05-30T08:33:26.183Z,46.91
2019-05-30T08:34:26.177Z,46.20
2019-05-30T08:35:39.208Z,44.89
2019-05-30T08:36:26.133Z,45.39
2019-05-30T08:37:26.137Z,46.40
2019-05-30T08:38:26.112Z,45.90
2019-05-30T08:39:26.121Z,46.28
2019-05-30T08:40:26.124Z,46.40
2019-05-30T08:41:26.129Z,43.96
2019-05-30T08:42:27.968Z,43.96
2019-05-30T08:43:26.072Z,44.07
2019-05-30T08:44:26.050Z,44.27
2019-05-30T08:45:26.054Z,43.66
2019-05-30T08:46:26.061Z,43.24
2019-05-30T08:47:26.006Z,44.35
2019-05-30T08:48:26.068Z,43.14
2019-05-30T08:49:26.010Z,43.24
2019-05-30T08:50:25.989Z,42.94
2019-05-30T08:51:25.991Z,41.63
2019-05-30T08:52:25.956Z,41.63
2019-05-30T08:53:26.010Z,41.33
2019-05-30T08:54:25.940Z,40.92
2019-05-30T08:55:25.919Z,41.93
2019-05-30T08:56:28.420Z,41.71
2019-05-30T08:57:25.922Z,42.61
2019-05-30T08:58:25.930Z,41.21
2019-05-30T08:59:25.938Z,41.71
2019-05-30T09:00:25.889Z,41.01
2019-05-30T09:01:25.901Z,42.11
2019-05-30T09:02:25.858Z,41.91
2019-05-30T09:03:25.867Z,41.59
2019-05-30T09:04:25.878Z,40.30
2019-05-30T09:05:25.813Z,41.11
2019-05-30T09:06:25.818Z,41.01
2019-05-30T09:07:25.797Z,41.29
2019-05-30T09:08:25.794Z,42.41
2019-05-30T09:09:25.805Z,41.59
2019-05-30T09:10:25.806Z,40.79
2019-05-30T09:11:25.759Z,42.10
2019-05-30T09:12:25.759Z,41.37
2019-05-30T09:13:25.725Z,41.27
2019-05-30T09:14:25.778Z,40.06
2019-05-30T09:15:25.785Z,41.17
2019-05-30T09:16:25.688Z,41.47
2019-05-30T09:17:25.690Z,41.17
2019-05-30T09:18:25.701Z,39.76
2019-05-30T09:19:25.665Z,39.97
2019-05-30T09:20:25.680Z,40.26
2019-05-30T09:21:25.684Z,39.47
2019-05-30T09:22:25.642Z,40.97
2019-05-30T09:23:25.606Z,40.67
2019-05-30T09:24:25.629Z,39.97
2019-05-30T09:25:25.598Z,41.07
2019-05-30T09:26:25.656Z,41.17
2019-05-30T09:27:25.569Z,41.37
2019-05-30T09:28:25.563Z,41.15
2019-05-30T09:29:25.568Z,41.05
2019-05-30T09:30:25.549Z,39.34
2019-05-30T09:31:25.534Z,39.64
2019-05-30T09:32:25.556Z,39.14
2019-05-30T09:33:25.516Z,39.25
2019-05-30T09:34:25.511Z,39.84
2019-05-30T09:35:25.483Z,40.15
2019-05-30T09:36:25.482Z,40.15
2019-05-30T09:37:25.480Z,40.73
2019-05-30T09:38:25.463Z,39.75
2019-05-30T09:39:25.436Z,39.95
2019-05-30T09:40:25.443Z,41.03
2019-05-30T09:41:25.419Z,40.43
2019-05-30T09:42:25.456Z,41.03
2019-05-30T09:43:25.421Z,39.62
2019-05-30T09:44:25.419Z,40.03
2019-05-30T09:45:25.375Z,38.81
2019-05-30T09:46:25.420Z,39.23
2019-05-30T09:47:25.357Z,39.73
2019-05-30T09:48:25.352Z,39.42
2019-05-30T09:49:25.336Z,39.23
2019-05-30T09:50:25.318Z,39.40
2019-05-30T09:51:25.381Z,38.70
2019-05-30T09:52:25.373Z,38.79
2019-05-30T09:53:25.294Z,39.11
2019-05-30T09:54:25.285Z,38.90
2019-05-30T09:55:25.268Z,39.11
2019-05-30T09:56:25.313Z,38.90
2019-05-30T09:57:25.259Z,39.40
2019-05-30T09:58:25.227Z,39.91
2019-05-30T09:59:25.223Z,39.49
2019-05-30T10:00:25.225Z,39.21
2019-05-30T10:01:25.238Z,39.51
2019-05-30T10:02:25.214Z,39.69
2019-05-30T10:03:25.191Z,40.51
2019-05-30T10:04:25.168Z,40.09
2019-05-30T10:05:25.167Z,38.89
2019-05-30T10:06:29.351Z,39.09
2019-05-30T10:07:25.188Z,38.49
2019-05-30T10:08:25.148Z,39.09
2019-05-30T10:09:25.132Z,38.07
2019-05-30T10:10:25.102Z,38.97
2019-05-30T10:11:25.136Z,37.27
2019-05-30T10:12:25.113Z,39.17
2019-05-30T10:13:25.115Z,37.96
2019-05-30T10:14:25.060Z,38.07
2019-05-30T10:15:25.035Z,38.27
2019-05-30T10:16:25.041Z,38.57
2019-05-30T10:17:25.047Z,38.47
2019-05-30T10:18:25.029Z,38.07
2019-05-30T10:19:25.020Z,37.96
2019-05-30T10:20:25.020Z,38.25
2019-05-30T10:21:24.972Z,37.46
2019-05-30T10:22:25.050Z,38.15
2019-05-30T10:23:24.953Z,37.55
2019-05-30T10:24:24.957Z,37.45
2019-05-30T10:25:24.987Z,37.35
2019-05-30T10:26:24.965Z,37.35
2019-05-30T10:27:24.914Z,37.35
2019-05-30T10:28:24.918Z,37.25
2019-05-30T10:29:24.891Z,37.85
2019-05-30T10:30:24.942Z,37.33
2019-05-30T10:31:24.859Z,37.25
2019-05-30T10:32:24.868Z,37.33
2019-05-30T10:33:24.917Z,37.35
2019-05-30T10:34:24.851Z,36.13
2019-05-30T10:35:24.861Z,36.43
2019-05-30T10:36:24.818Z,35.03
2019-05-30T10:37:24.799Z,34.94
2019-05-30T10:38:24.795Z,35.05
2019-05-30T10:39:24.787Z,35.55
2019-05-30T10:40:24.802Z,36.44
2019-05-30T10:41:24.762Z,36.05
2019-05-30T10:42:24.811Z,36.75
2019-05-30T10:43:24.737Z,35.64
2019-05-30T10:44:24.725Z,36.15
2019-05-30T10:45:24.725Z,35.55
2019-05-30T10:46:24.732Z,35.64
2019-05-30T10:47:24.707Z,35.55
2019-05-30T10:48:24.713Z,35.85
2019-05-30T10:49:34.295Z,35.44
2019-05-30T10:50:24.656Z,35.25
2019-05-30T10:51:24.688Z,34.93
2019-05-30T10:52:24.631Z,35.44
2019-05-30T10:53:24.642Z,35.14
2019-05-30T10:54:24.608Z,35.44
2019-05-30T10:55:24.597Z,34.73
2019-05-30T10:56:24.593Z,35.53
2019-05-30T10:57:24.607Z,35.83
2019-05-30T10:58:24.570Z,34.23
2019-05-30T10:59:24.674Z,34.93
2019-05-30T11:00:24.574Z,34.33
2019-05-30T11:01:24.534Z,33.62
2019-05-30T11:02:24.640Z,34.03
2019-05-30T11:03:24.538Z,34.11
2019-05-30T11:04:24.514Z,33.41
2019-05-30T11:05:24.509Z,33.81
2019-05-30T11:06:24.520Z,34.01
2019-05-30T11:07:25.076Z,35.71
2019-05-30T11:08:24.545Z,34.91
2019-05-30T11:09:24.487Z,35.01
2019-05-30T11:10:24.476Z,35.01
2019-05-30T11:11:24.441Z,34.91
2019-05-30T11:12:24.452Z,32.81
2019-05-30T11:13:24.474Z,33.81
2019-05-30T11:14:24.407Z,35.11
2019-05-30T11:15:24.388Z,35.31
2019-05-30T11:16:24.385Z,34.01
2019-05-30T11:17:24.387Z,34.11
2019-05-30T11:18:24.408Z,34.11
2019-05-30T11:19:24.347Z,33.51
2019-05-30T11:20:24.352Z,34.51
2019-05-30T11:21:24.322Z,34.41
2019-05-30T11:22:24.392Z,34.00
2019-05-30T11:23:24.328Z,35.10
2019-05-30T11:24:24.375Z,35.49
2019-05-30T11:25:24.291Z,35.69
2019-05-30T11:26:24.288Z,35.30
2019-05-30T11:27:24.258Z,33.00
2019-05-30T11:28:24.265Z,33.00
2019-05-30T11:29:24.276Z,34.19
2019-05-30T11:30:24.228Z,33.20
2019-05-30T11:31:24.219Z,33.00
2019-05-30T11:32:24.231Z,32.40
2019-05-30T11:33:24.189Z,33.29
2019-05-30T11:34:24.242Z,33.70
2019-05-30T11:35:24.193Z,33.29
2019-05-30T11:36:24.159Z,33.70
2019-05-30T11:37:24.165Z,33.39
2019-05-30T11:38:24.155Z,34.69
2019-05-30T11:39:24.130Z,34.09
2019-05-30T11:40:24.128Z,33.29
2019-05-30T11:41:24.119Z,33.20
2019-05-30T11:42:24.087Z,33.89
2019-05-30T11:43:24.092Z,33.29
2019-05-30T11:44:24.091Z,32.61
2019-05-30T11:45:24.108Z,33.31
2019-05-30T11:46:24.108Z,34.51
2019-05-30T11:47:24.057Z,33.20
2019-05-30T11:48:24.114Z,33.61
2019-05-30T11:49:24.030Z,33.11
2019-05-30T11:50:23.998Z,33.31
2019-05-30T11:51:24.003Z,34.01
2019-05-30T11:52:24.014Z,33.51
2019-05-30T11:53:23.974Z,33.51
2019-05-30T11:54:23.978Z,33.70
2019-05-30T11:55:23.969Z,34.39
2019-05-30T11:56:23.933Z,33.20
2019-05-30T11:57:23.942Z,33.38
2019-05-30T11:58:23.926Z,34.08
2019-05-30T11:59:23.896Z,33.08
2019-05-30T12:00:23.904Z,33.58
2019-05-30T12:01:23.901Z,33.38
2019-05-30T12:02:23.956Z,32.88
2019-05-30T12:03:23.882Z,33.39
2019-05-30T12:04:23.868Z,34.30
2019-05-30T12:05:23.841Z,33.50
2019-05-30T12:06:23.843Z,33.68
2019-05-30T12:07:35.773Z,33.48
2019-05-30T12:08:23.840Z,32.78
2019-05-30T12:09:23.817Z,33.48
2019-05-30T12:10:23.809Z,34.18
2019-05-30T12:11:23.772Z,33.78
2019-05-30T12:12:23.770Z,34.08
2019-05-30T12:13:23.827Z,33.38
2019-05-30T12:14:23.747Z,32.97
2019-05-30T12:15:23.753Z,32.26
2019-05-30T12:16:23.802Z,33.96
2019-05-30T12:17:23.711Z,33.16
2019-05-30T12:18:23.727Z,33.47
2019-05-30T12:19:23.715Z,33.66
2019-05-30T12:20:23.671Z,33.88
2019-05-30T12:21:23.680Z,32.88
2019-05-30T12:22:23.644Z,33.36
2019-05-30T12:23:23.650Z,33.26
2019-05-30T12:24:23.697Z,32.68
2019-05-30T12:25:23.624Z,33.58
2019-05-30T12:26:23.611Z,33.78
2019-05-30T12:27:23.626Z,33.28
2019-05-30T12:28:23.586Z,32.88
2019-05-30T12:29:23.578Z,33.68
2019-05-30T12:30:24.047Z,34.48
2019-05-30T12:31:23.548Z,33.80
2019-05-30T12:32:23.549Z,33.20
2019-05-30T12:33:23.573Z,34.50
2019-05-30T12:34:23.523Z,34.09
2019-05-30T12:35:23.566Z,33.91
2019-05-30T12:36:23.497Z,34.71
2019-05-30T12:37:23.672Z,34.61
2019-05-30T12:38:23.481Z,35.41
2019-05-30T12:39:23.481Z,35.91
2019-05-30T12:40:23.458Z,35.49
2019-05-30T12:41:23.489Z,36.29
2019-05-30T12:42:23.443Z,34.89
2019-05-30T12:43:23.414Z,35.39
2019-05-30T12:44:23.420Z,35.98
2019-05-30T12:45:23.419Z,36.08
2019-05-30T12:46:23.441Z,36.56
2019-05-30T12:47:23.376Z,35.96
2019-05-30T12:48:23.386Z,35.46
2019-05-30T12:49:23.349Z,36.96
2019-05-30T12:50:23.348Z,36.56
2019-05-30T12:51:23.355Z,34.16
2019-05-30T12:52:23.354Z,34.56